Terminal Aerodrome Forecast
Issued by NWS Topeka, KS

Home | Current Version | Previous Version | Text Only | Print | Product List | Glossary Off
Versions: 1 2 3 4 5 6 7 8 9 10 11 12 13 14 15 16 17 18 19 20 21 22 23

000
FTUS43 KTOP 261000 AAA
TAFTOP
TAF AMD
KTOP 261032Z 2611/2706 34012KT P6SM SCT100
     FM261500 05007KT P6SM SCT100
     FM261800 13008KT P6SM SCT080=

USA.gov is the U.S. government's official web portal to all federal, state and local government web resources and services.